Terminal Aerodrome Forecast
Issued by NWS Wakefield, VA

Home | Current Version | Previous Version | Text Only | Print | Product List | Glossary On
Versions: 1 2 3 4 5 6 7 8 9 10 11 12 13 14 15 16 17 18 19 20 21 22 23 24 25 26 27 28
406
FTUS41 KAKQ 252327 CCA
TAFORF
TAF COR
KORF 252327Z 2600/2624 05005KT P6SM FEW006 BKN100
      TEMPO 2600/2603 3SM -RA BR OVC006
     FM260300 34002KT 6SM -RA OVC050
     FM260600 29003KT 1 1/2SM BR OVC007
     FM261000 29007KT 2SM BR OVC010
     FM261400 29007KT P6SM BKN010
     FM262100 29006KT P6SM BKN050=

USA.gov is the U.S. government's official web portal to all federal, state and local government web resources and services.